createdAt,value
2022-11-10T00:00:26.140Z,8.50
2022-11-10T00:05:34.128Z,8.50
2022-11-10T00:10:43.334Z,8.50
2022-11-10T00:16:09.373Z,8.50
2022-11-10T00:21:16.476Z,8.60
2022-11-10T00:26:24.356Z,8.60
2022-11-10T00:31:30.137Z,8.60
2022-11-10T00:36:39.010Z,8.60
2022-11-10T00:41:51.677Z,8.60
2022-11-10T00:46:58.841Z,8.60
2022-11-10T00:52:06.512Z,8.60
2022-11-10T00:57:14.714Z,8.60
2022-11-10T01:02:23.047Z,8.60
2022-11-10T01:07:31.590Z,8.60
2022-11-10T01:12:49.884Z,8.60
2022-11-10T01:17:58.559Z,8.60
2022-11-10T01:23:16.895Z,8.60
2022-11-10T01:28:23.100Z,8.60
2022-11-10T01:33:31.467Z,8.70
2022-11-10T01:38:44.715Z,8.70
2022-11-10T01:44:00.559Z,8.70
2022-11-10T01:49:19.351Z,8.70
2022-11-10T01:54:38.215Z,8.70
2022-11-10T02:00:00.328Z,8.80
2022-11-10T02:05:15.811Z,8.80
2022-11-10T02:10:26.579Z,8.80
2022-11-10T02:15:35.055Z,8.90
2022-11-10T02:20:48.862Z,8.80
2022-11-10T02:25:54.765Z,8.80
2022-11-10T02:31:00.614Z,8.80
2022-11-10T02:36:06.672Z,8.80
2022-11-10T02:41:12.498Z,8.80
2022-11-10T02:46:18.224Z,8.70
2022-11-10T02:51:25.417Z,8.70
2022-11-10T02:56:31.362Z,8.70
2022-11-10T03:01:42.424Z,8.70
2022-11-10T03:06:49.010Z,8.70
2022-11-10T03:11:57.943Z,8.80
2022-11-10T03:17:08.513Z,8.80
2022-11-10T03:22:20.608Z,8.90
2022-11-10T03:27:35.128Z,8.90
2022-11-10T03:32:41.969Z,9.00
2022-11-10T03:37:47.945Z,9.00
2022-11-10T03:42:55.258Z,9.00
2022-11-10T03:48:10.193Z,9.00
2022-11-10T03:53:19.630Z,9.00
2022-11-10T03:58:39.439Z,9.00
2022-11-10T04:04:01.051Z,8.90
2022-11-10T04:09:14.150Z,8.90
2022-11-10T04:14:48.843Z,8.90
2022-11-10T04:20:01.422Z,9.00
2022-11-10T04:25:11.478Z,9.00
2022-11-10T04:30:17.530Z,9.00
2022-11-10T04:35:24.929Z,9.10
2022-11-10T04:40:30.943Z,9.10
2022-11-10T04:45:46.793Z,9.10
2022-11-10T04:50:52.577Z,9.00
2022-11-10T04:56:04.725Z,9.00
2022-11-10T05:01:15.834Z,9.00
2022-11-10T05:06:25.762Z,9.00
2022-11-10T05:11:43.277Z,8.90
2022-11-10T05:16:54.416Z,9.00
2022-11-10T05:22:04.148Z,8.90
2022-11-10T05:27:27.896Z,8.90
2022-11-10T05:32:54.306Z,9.00
2022-11-10T05:38:00.776Z,9.10
2022-11-10T05:43:06.276Z,9.20
2022-11-10T05:48:14.739Z,9.20
2022-11-10T05:53:33.777Z,9.20
2022-11-10T06:44:59.364Z,9.10
2022-11-10T06:50:12.766Z,9.10
2022-11-10T06:55:25.850Z,9.10
2022-11-10T07:00:33.761Z,9.20
2022-11-10T07:05:44.798Z,9.20
2022-11-10T07:11:01.741Z,9.20
2022-11-10T07:16:12.850Z,9.30
2022-11-10T07:21:21.053Z,9.40
2022-11-10T07:26:31.623Z,9.40
2022-11-10T07:31:42.434Z,9.50
2022-11-10T07:36:55.582Z,9.50
2022-11-10T07:42:11.573Z,9.60
2022-11-10T07:53:22.146Z,9.90
2022-11-10T07:58:29.854Z,10.00
2022-11-10T08:03:39.739Z,10.10
2022-11-10T08:08:47.351Z,10.30
2022-11-10T08:13:52.844Z,10.30
2022-11-10T08:19:00.427Z,10.30
2022-11-10T08:24:08.521Z,11.00
2022-11-10T08:29:16.427Z,12.10
2022-11-10T08:34:25.702Z,12.50
2022-11-10T08:39:41.051Z,12.10
2022-11-10T08:44:44.773Z,11.90
2022-11-10T08:49:50.930Z,11.80
2022-11-10T08:54:57.701Z,11.90
2022-11-10T09:00:03.415Z,12.30
2022-11-10T09:05:13.670Z,12.50
2022-11-10T09:10:19.157Z,12.70
2022-11-10T09:15:40.183Z,13.20
2022-11-10T09:20:46.741Z,13.40
2022-11-10T09:26:01.242Z,13.00
2022-11-10T09:31:07.013Z,12.80
2022-11-10T09:36:13.297Z,12.70
2022-11-10T09:41:27.237Z,12.50
2022-11-10T09:46:41.605Z,12.50
2022-11-10T09:51:53.762Z,12.80
2022-11-10T10:02:42.616Z,13.20
2022-11-10T10:07:58.485Z,13.20
2022-11-10T10:13:23.662Z,13.30
2022-11-10T10:18:48.897Z,13.20
2022-11-10T10:24:11.568Z,13.40
2022-11-10T10:29:13.094Z,13.20
2022-11-10T10:34:31.861Z,13.10
2022-11-10T10:39:47.482Z,13.20
2022-11-10T10:45:29.268Z,13.00
2022-11-10T10:50:38.060Z,13.00
2022-11-10T10:55:56.273Z,13.10
2022-11-10T11:01:07.580Z,13.20
2022-11-10T11:06:34.052Z,13.30
2022-11-10T11:11:45.162Z,13.40
2022-11-10T11:17:01.329Z,13.50
2022-11-10T11:22:31.158Z,13.50
2022-11-10T11:27:39.500Z,13.40
2022-11-10T11:32:53.251Z,13.30
2022-11-10T11:38:13.098Z,13.30
2022-11-10T11:43:38.151Z,13.20
2022-11-10T11:49:12.990Z,13.20
2022-11-10T11:55:02.793Z,13.20
2022-11-10T12:00:25.962Z,13.10
2022-11-10T12:05:52.126Z,13.20
2022-11-10T12:16:58.499Z,12.70
2022-11-10T12:22:27.215Z,12.60
2022-11-10T12:27:36.762Z,12.50
2022-11-10T12:32:56.602Z,12.50
2022-11-10T12:38:19.800Z,12.50
2022-11-10T12:43:40.178Z,12.60
2022-11-10T12:48:49.541Z,12.90
2022-11-10T12:53:55.352Z,13.10
2022-11-10T12:59:24.235Z,13.40
2022-11-10T13:04:33.642Z,13.50
2022-11-10T13:09:42.282Z,13.40
2022-11-10T13:14:51.419Z,13.20
2022-11-10T13:20:20.741Z,13.00
2022-11-10T13:25:41.212Z,13.00
2022-11-10T13:31:31.834Z,13.10
2022-11-10T13:36:45.858Z,13.10
2022-11-10T13:42:04.130Z,13.00
2022-11-10T13:47:12.395Z,12.80
2022-11-10T13:52:26.953Z,12.60
2022-11-10T13:57:38.839Z,12.40
2022-11-10T14:02:52.564Z,12.40
2022-11-10T14:08:12.579Z,12.20
2022-11-10T14:13:47.643Z,12.10
2022-11-10T14:19:22.855Z,12.00
2022-11-10T14:24:40.566Z,11.90
2022-11-10T14:30:13.340Z,11.70
2022-11-10T14:35:21.550Z,11.60
2022-11-10T14:40:31.452Z,11.50
2022-11-10T14:45:47.787Z,11.40
2022-11-10T14:50:55.104Z,11.20
2022-11-10T14:56:02.848Z,11.00
2022-11-10T15:01:10.264Z,10.80
2022-11-10T15:06:16.403Z,10.70
2022-11-10T15:11:42.428Z,10.50
2022-11-10T15:17:05.260Z,10.30
2022-11-10T15:22:19.380Z,10.10
2022-11-10T15:27:30.195Z,9.90
2022-11-10T15:32:38.690Z,9.70
2022-11-10T15:37:45.528Z,9.50
2022-11-10T15:43:11.708Z,9.40
2022-11-10T15:48:20.150Z,9.20
2022-11-10T15:53:47.198Z,9.00
2022-11-10T15:58:57.849Z,8.90
2022-11-10T16:04:07.818Z,8.80
2022-11-10T16:09:14.657Z,8.60
2022-11-10T16:14:20.474Z,8.50
2022-11-10T16:19:31.232Z,8.40
2022-11-10T16:24:36.830Z,8.20
2022-11-10T16:29:49.071Z,8.10
2022-11-10T16:34:58.011Z,8.00
2022-11-10T16:40:06.511Z,8.00
2022-11-10T16:45:50.031Z,7.90
2022-11-10T16:51:03.482Z,7.80
2022-11-10T16:56:15.963Z,7.70
2022-11-10T17:01:39.678Z,7.60
2022-11-10T17:06:48.694Z,7.50
2022-11-10T17:11:55.559Z,7.40
2022-11-10T17:17:01.100Z,7.40
2022-11-10T17:22:06.511Z,7.30
2022-11-10T17:27:12.102Z,7.20
2022-11-10T17:32:24.228Z,7.10
2022-11-10T17:37:26.116Z,7.00
2022-11-10T17:42:31.591Z,7.00
2022-11-10T17:47:40.165Z,7.00
2022-11-10T17:52:54.766Z,7.00
2022-11-10T17:58:12.348Z,7.10
2022-11-10T18:03:25.443Z,7.30
2022-11-10T18:08:37.955Z,7.30
2022-11-10T18:13:45.104Z,7.30
2022-11-10T18:18:52.768Z,7.40
2022-11-10T18:24:01.489Z,7.40
2022-11-10T18:29:29.800Z,7.40
2022-11-10T18:34:42.852Z,7.50
2022-11-10T18:39:57.981Z,7.60
2022-11-10T18:50:38.532Z,7.60
2022-11-10T18:55:59.184Z,7.60
2022-11-10T19:01:23.967Z,7.60
2022-11-10T19:06:51.705Z,7.60
2022-11-10T19:12:26.611Z,7.70
2022-11-10T19:18:20.891Z,7.70
2022-11-10T19:23:37.215Z,7.70
2022-11-10T19:28:55.582Z,7.70
2022-11-10T19:34:25.897Z,7.70
2022-11-10T19:40:05.054Z,7.60
2022-11-10T19:45:19.960Z,7.50
2022-11-10T19:57:11.636Z,7.30
2022-11-10T20:02:34.832Z,7.10
2022-11-10T20:47:48.133Z,7.30
2022-11-10T20:53:04.342Z,7.30
2022-11-10T20:58:34.798Z,7.20
2022-11-10T21:15:03.513Z,6.80
2022-11-10T21:20:09.479Z,6.80
2022-11-10T21:25:16.655Z,6.80
2022-11-10T21:30:31.352Z,6.90
2022-11-10T21:35:47.088Z,6.90
2022-11-10T21:41:09.225Z,6.90
2022-11-10T21:46:35.640Z,6.90
2022-11-10T21:51:49.644Z,6.80
2022-11-10T21:56:56.451Z,6.80
2022-11-10T22:02:01.961Z,6.70
2022-11-10T22:07:25.659Z,6.60
2022-11-10T22:12:48.317Z,6.50
2022-11-10T22:18:11.263Z,6.60
2022-11-10T22:23:16.659Z,6.70
2022-11-10T22:28:25.842Z,6.90
2022-11-10T22:33:39.824Z,7.10
2022-11-10T22:39:01.994Z,7.10
2022-11-10T22:44:10.722Z,7.30
2022-11-10T22:49:32.555Z,7.30
2022-11-10T23:00:24.240Z,7.80
2022-11-10T23:05:41.807Z,8.10
2022-11-10T23:11:07.185Z,8.30
2022-11-10T23:16:34.415Z,8.40
2022-11-10T23:21:52.130Z,8.50
2022-11-10T23:27:24.480Z,8.60
2022-11-10T23:32:54.233Z,8.70
2022-11-10T23:38:11.079Z,8.70
2022-11-10T23:43:31.627Z,8.80
2022-11-10T23:48:43.868Z,8.90
2022-11-10T23:54:00.339Z,9.10
2022-11-10T23:59:10.676Z,9.20
